Time;durP1;ratioP1;P1;durP2;ratioP2;P2;SDS_P1;SDS_P2;PMS_P1;PMS_P2;Temp;Humidity;BMP_temperature;BMP_pressure;BME280_temperature;BME280_humidity;BME280_pressure;Samples;Min_cycle;Max_cycle;Signal;HPM_P1;HPM_P2
2023/06/14 00:04:54;;;;;;;2.90;2.70;;;;;;;12.08;84.31;99553.09;436238;1255;138848;-70
2023/06/14 00:14:57;;;;;;;3.40;2.40;;;;;;;12.01;84.42;99551.44;436576;1254;138862;-69
2023/06/14 00:25:00;;;;;;;3.30;2.90;;;;;;;11.91;84.37;99551.77;436239;1251;140509;-69
2023/06/14 00:35:14;;;;;;;4.60;3.40;;;;;;;11.82;84.48;99546.94;436697;1254;138822;-70
2023/06/14 00:45:18;;;;;;;4.30;2.90;;;;;;;11.72;84.21;99546.06;437224;1251;139268;-69
2023/06/14 00:55:21;;;;;;;3.60;2.60;;;;;;;11.63;84.00;99546.88;437156;1251;139268;-72
2023/06/14 01:05:25;;;;;;;2.50;2.30;;;;;;;11.54;84.12;99541.51;436769;1251;140042;-68
2023/06/14 01:15:30;;;;;;;5.10;2.90;;;;;;;11.49;84.22;99542.70;437368;1254;138826;-69
2023/06/14 01:25:32;;;;;;;3.90;2.60;;;;;;;11.43;84.19;99534.01;436957;1254;139686;-69
2023/06/14 01:35:37;;;;;;;2.40;2.10;;;;;;;11.35;83.99;99532.27;436574;1253;138626;-69
2023/06/14 01:45:42;;;;;;;3.90;2.30;;;;;;;11.35;84.17;99530.52;436763;1252;139193;-70
2023/06/14 01:55:48;;;;;;;4.40;3.00;;;;;;;11.34;84.00;99536.36;436488;1254;140078;-68
2023/06/14 02:05:51;;;;;;;5.20;2.90;;;;;;;11.29;83.83;99544.22;436007;1254;139726;-69
2023/06/14 02:15:55;;;;;;;4.60;3.40;;;;;;;11.22;84.19;99536.45;436205;1254;139121;-69
2023/06/14 02:25:58;;;;;;;4.30;3.70;;;;;;;11.20;84.64;99535.73;436299;1253;139947;-69
2023/06/14 02:36:03;;;;;;;3.90;3.50;;;;;;;11.22;85.12;99535.59;436175;1251;140365;-69
2023/06/14 02:46:06;;;;;;;7.00;4.50;;;;;;;11.22;85.52;99534.40;436301;1253;138845;-69
2023/06/14 02:56:10;;;;;;;5.70;5.10;;;;;;;11.18;85.77;99538.30;436835;1252;139694;-69
2023/06/14 03:06:13;;;;;;;7.60;4.90;;;;;;;11.23;86.11;99541.85;436190;1251;139518;-68
2023/06/14 03:16:19;;;;;;;5.70;5.20;;;;;;;11.33;86.28;99534.67;436364;1254;139092;-69
2023/06/14 03:26:22;;;;;;;6.00;4.90;;;;;;;11.42;86.33;99541.77;436394;1251;139574;-69
2023/06/14 03:36:25;;;;;;;7.00;5.20;;;;;;;11.48;86.24;99543.98;436047;1251;138821;-68
2023/06/14 03:46:28;;;;;;;7.00;5.40;;;;;;;11.53;86.47;99548.05;436540;1251;139056;-69
2023/06/14 03:56:31;;;;;;;7.60;5.20;;;;;;;11.62;86.52;99551.63;436076;1251;139652;-67
2023/06/14 04:06:34;;;;;;;7.10;4.70;;;;;;;11.74;86.49;99550.67;436067;1254;139470;-68
2023/06/14 04:16:38;;;;;;;6.10;4.90;;;;;;;11.95;86.35;99560.61;436230;1250;138785;-69
2023/06/14 04:26:44;;;;;;;6.00;4.60;;;;;;;12.27;86.00;99558.04;436463;1251;140129;-68
2023/06/14 04:36:49;;;;;;;6.50;5.30;;;;;;;12.68;85.16;99562.13;436075;1251;139828;-68
2023/06/14 04:46:52;;;;;;;7.20;6.10;;;;;;;12.78;84.36;99565.80;436534;1251;138949;-69
2023/06/14 04:56:56;;;;;;;9.80;5.50;;;;;;;12.83;83.88;99563.28;436145;1254;139226;-68
2023/06/14 05:07:00;;;;;;;7.40;5.70;;;;;;;12.87;83.81;99563.41;435955;1253;139598;-68
2023/06/14 05:17:05;;;;;;;6.70;5.80;;;;;;;13.39;83.22;99557.05;436798;1254;139418;-70
2023/06/14 05:27:08;;;;;;;5.60;4.90;;;;;;;13.86;81.60;99544.87;436772;1251;139730;-69
2023/06/14 05:37:13;;;;;;;5.50;5.00;;;;;;;13.95;80.45;99543.00;435946;1254;139762;-68
2023/06/14 05:47:16;;;;;;;7.70;4.50;;;;;;;14.30;79.41;99544.45;435849;1251;139899;-69
2023/06/14 05:57:19;;;;;;;9.30;4.30;;;;;;;14.50;78.40;99553.71;437076;1251;141779;-69
2023/06/14 06:07:22;;;;;;;6.00;4.30;;;;;;;14.92;77.51;99567.64;436240;1254;138906;-69
2023/06/14 06:17:25;;;;;;;8.30;4.50;;;;;;;15.44;75.68;99574.28;436138;1250;138634;-70
2023/06/14 06:27:28;;;;;;;7.10;5.00;;;;;;;15.21;74.92;99574.92;436160;1251;139336;-69
2023/06/14 06:37:31;;;;;;;5.90;4.30;;;;;;;14.93;74.60;99579.34;435931;1254;138802;-70
2023/06/14 06:47:35;;;;;;;7.00;3.90;;;;;;;14.83;74.60;99571.17;436098;1250;139700;-69
2023/06/14 06:57:38;;;;;;;6.60;5.10;;;;;;;14.61;74.30;99584.52;436117;1254;140248;-69
2023/06/14 07:07:41;;;;;;;5.20;4.80;;;;;;;14.70;75.06;99589.66;436096;1251;139321;-69
2023/06/14 07:17:45;;;;;;;5.40;4.80;;;;;;;15.92;75.11;99591.36;436110;1251;138756;-69
2023/06/14 07:27:48;;;;;;;5.30;4.80;;;;;;;18.80;72.42;99583.64;436049;1253;149724;-69
2023/06/14 07:37:51;;;;;;;7.20;4.20;;;;;;;23.36;64.97;99587.06;436041;1250;139659;-69
2023/06/14 07:47:54;;;;;;;5.60;3.20;;;;;;;26.58;57.15;99584.42;436030;1250;139296;-68
2023/06/14 07:57:58;;;;;;;8.60;4.10;;;;;;;25.18;53.22;99589.17;436238;1254;138912;-69
2023/06/14 08:08:01;;;;;;;5.40;3.60;;;;;;;23.52;53.05;99593.46;436152;1251;138539;-71
2023/06/14 08:18:04;;;;;;;4.70;3.30;;;;;;;22.37;53.08;99597.55;435983;1254;138745;-70
2023/06/14 08:28:07;;;;;;;4.30;3.70;;;;;;;21.26;54.31;99597.02;436470;1254;138527;-69
2023/06/14 08:38:11;;;;;;;4.70;3.20;;;;;;;20.40;54.79;99594.73;436133;1251;139912;-70
2023/06/14 08:48:17;;;;;;;5.90;3.20;;;;;;;19.03;55.83;99591.33;436162;1253;139775;-69
2023/06/14 08:58:20;;;;;;;4.30;3.90;;;;;;;17.97;57.65;99601.02;436643;1253;138655;-69
2023/06/14 09:08:23;;;;;;;4.80;3.70;;;;;;;17.55;59.10;99604.21;436076;1254;138101;-69
2023/06/14 09:18:35;;;;;;;6.90;4.80;;;;;;;17.23;59.77;99609.55;435976;1254;138573;-69
2023/06/14 09:28:43;;;;;;;7.40;3.90;;;;;;;17.69;60.37;99611.20;436310;1253;138675;-70
2023/06/14 09:38:54;;;;;;;5.20;4.70;;;;;;;18.10;59.80;99610.61;436382;1254;138882;-69
2023/06/14 09:48:57;;;;;;;6.00;3.80;;;;;;;18.04;60.00;99605.26;436222;1253;140405;-69
2023/06/14 09:59:04;;;;;;;7.70;4.10;;;;;;;18.38;59.39;99603.48;436518;1254;138671;-69
2023/06/14 10:09:11;;;;;;;3.90;3.60;;;;;;;18.57;58.41;99603.25;435917;1255;138105;-70
2023/06/14 10:19:22;;;;;;;5.50;3.30;;;;;;;18.76;58.01;99601.96;436770;1253;139184;-69
2023/06/14 10:29:26;;;;;;;8.10;3.60;;;;;;;19.22;57.19;99597.70;436401;1255;138179;-69
2023/06/14 10:39:30;;;;;;;7.20;3.30;;;;;;;19.45;56.52;99596.98;439749;1251;140077;-70
2023/06/14 10:49:42;;;;;;;4.00;3.40;;;;;;;19.66;55.46;99587.22;436669;1254;139553;-70
2023/06/14 10:59:46;;;;;;;4.80;3.10;;;;;;;20.10;55.06;99586.25;436729;1255;138311;-70
2023/06/14 11:10:05;;;;;;;6.80;3.20;;;;;;;20.02;54.42;99580.13;436523;1251;139182;-70
2023/06/14 11:20:10;;;;;;;6.40;3.80;;;;;;;19.69;54.58;99569.62;436531;1254;138671;-69
2023/06/14 11:30:14;;;;;;;6.70;4.00;;;;;;;18.88;55.50;99572.42;437038;1250;138571;-69
2023/06/14 11:40:17;;;;;;;6.40;3.50;;;;;;;18.51;56.73;99568.43;436355;1253;139698;-69
2023/06/14 11:50:21;;;;;;;5.70;3.50;;;;;;;18.53;56.90;99570.90;436135;1256;139859;-70
2023/06/14 12:00:27;;;;;;;4.70;4.30;;;;;;;19.04;56.71;99563.94;436020;1251;138494;-70
2023/06/14 12:10:39;;;;;;;5.80;4.40;;;;;;;20.11;55.58;99556.70;436214;1253;138098;-69
2023/06/14 12:20:42;;;;;;;5.50;3.30;;;;;;;20.76;54.21;99546.83;436132;1250;138483;-72
2023/06/14 12:30:45;;;;;;;6.20;3.80;;;;;;;20.83;53.12;99540.56;436411;1253;138111;-70
2023/06/14 12:40:49;;;;;;;7.70;5.20;;;;;;;20.86;54.01;99526.36;436063;1256;138225;-70
2023/06/14 12:50:52;;;;;;;4.50;4.00;;;;;;;20.61;55.60;99525.73;436275;1254;138301;-69
2023/06/14 13:00:55;;;;;;;5.50;4.00;;;;;;;20.87;55.40;99529.82;436212;1256;138482;-70
2023/06/14 13:10:58;;;;;;;1.10;0.90;;;;;;;20.58;54.21;99549.98;436977;1254;139293;-69
2023/06/14 13:21:01;;;;;;;4.70;3.10;;;;;;;18.39;55.30;99556.08;436182;1255;138577;-70
2023/06/14 13:31:04;;;;;;;15.30;5.70;;;;;;;16.83;62.19;99561.91;436166;1254;139649;-69
2023/06/14 13:41:07;;;;;;;6.60;5.00;;;;;;;15.70;67.06;99558.50;436380;1255;138190;-70
2023/06/14 13:51:11;;;;;;;16.20;10.00;;;;;;;15.15;69.54;99548.44;436278;1251;140106;-71
2023/06/14 14:01:14;;;;;;;10.50;7.30;;;;;;;14.93;72.10;99548.67;436146;1254;139410;-69
2023/06/14 14:11:17;;;;;;;10.40;5.80;;;;;;;14.90;73.92;99557.92;436264;1256;139627;-70
2023/06/14 14:21:20;;;;;;;12.80;5.70;;;;;;;14.69;74.32;99569.15;435644;1251;139145;-70
2023/06/14 14:31:23;;;;;;;6.30;5.40;;;;;;;14.69;76.10;99564.75;435586;1251;141833;-70
2023/06/14 14:41:27;;;;;;;8.00;6.60;;;;;;;14.74;77.38;99573.20;436233;1256;139654;-70
2023/06/14 14:51:30;;;;;;;13.10;7.50;;;;;;;14.78;78.78;99563.50;435985;1255;140318;-70
2023/06/14 15:01:33;;;;;;;6.20;5.40;;;;;;;14.79;79.62;99554.47;436093;1254;141814;-71
2023/06/14 15:11:36;;;;;;;9.70;7.70;;;;;;;14.74;80.46;99553.75;436414;1254;139840;-70
2023/06/14 15:21:39;;;;;;;7.60;6.70;;;;;;;14.77;80.70;99550.67;436428;1250;139524;-71
2023/06/14 15:31:42;;;;;;;8.50;6.20;;;;;;;14.74;81.24;99540.71;436121;1255;140328;-69
2023/06/14 15:41:46;;;;;;;9.40;7.00;;;;;;;14.79;81.65;99539.30;436271;1251;139328;-70
2023/06/14 15:51:49;;;;;;;7.20;6.50;;;;;;;14.86;82.61;99547.67;436496;1255;139804;-71
2023/06/14 16:01:52;;;;;;;10.70;7.80;;;;;;;14.84;82.84;99546.60;436302;1255;139402;-70
2023/06/14 16:11:56;;;;;;;8.50;7.50;;;;;;;14.94;83.49;99537.35;435773;1254;139163;-71
2023/06/14 16:22:00;;;;;;;10.20;7.00;;;;;;;15.05;83.63;99535.88;436718;1256;138859;-69
2023/06/14 16:32:03;;;;;;;13.60;7.60;;;;;;;14.99;83.49;99540.23;436336;1255;140294;-73
2023/06/14 16:42:08;;;;;;;10.60;7.60;;;;;;;14.97;83.86;99540.24;436301;1257;139629;-71
2023/06/14 16:52:11;;;;;;;8.00;7.20;;;;;;;14.99;84.69;99537.27;436572;1256;139342;-70
2023/06/14 17:02:14;;;;;;;8.20;7.20;;;;;;;14.96;85.03;99537.69;436174;1251;139393;-72
2023/06/14 17:12:17;;;;;;;10.90;8.50;;;;;;;14.91;85.56;99536.84;436199;1254;138716;-71
2023/06/14 17:22:20;;;;;;;9.10;7.50;;;;;;;14.92;85.83;99530.83;436228;1256;138903;-71
2023/06/14 17:32:24;;;;;;;10.40;9.10;;;;;;;14.87;86.05;99531.21;436331;1254;139118;-70
2023/06/14 17:42:27;;;;;;;10.80;8.30;;;;;;;14.84;86.31;99541.32;436939;1254;138983;-72
2023/06/14 17:52:30;;;;;;;8.20;7.40;;;;;;;14.71;86.44;99550.14;436247;1254;139556;-72
2023/06/14 18:02:33;;;;;;;8.00;7.20;;;;;;;14.62;87.17;99546.95;436332;1254;139783;-71
2023/06/14 18:12:37;;;;;;;9.00;8.10;;;;;;;14.54;87.73;99550.94;436512;1254;139164;-72
2023/06/14 18:22:40;;;;;;;8.60;7.90;;;;;;;14.35;88.36;99560.07;436686;1254;139354;-71
2023/06/14 18:32:46;;;;;;;10.50;9.40;;;;;;;14.21;89.24;99563.94;436549;1254;138860;-71
2023/06/14 18:42:50;;;;;;;8.90;7.90;;;;;;;14.05;90.43;99561.17;436748;1251;140167;-71
2023/06/14 18:52:53;;;;;;;7.50;6.70;;;;;;;13.90;90.97;99567.08;436294;1254;138652;-71
2023/06/14 19:02:56;;;;;;;8.00;7.10;;;;;;;13.75;91.23;99582.32;436065;1254;140193;-74
2023/06/14 19:12:59;;;;;;;6.40;5.80;;;;;;;13.58;91.83;99595.37;436711;1255;139350;-70
2023/06/14 19:23:03;;;;;;;8.20;6.30;;;;;;;13.48;92.30;99597.18;436371;1254;139657;-70
2023/06/14 19:33:06;;;;;;;11.00;8.90;;;;;;;13.38;92.59;99596.86;436452;1254;149240;-70
2023/06/14 19:43:09;;;;;;;9.50;7.20;;;;;;;13.29;92.79;99602.61;436838;1254;139018;-72
2023/06/14 19:53:13;;;;;;;7.40;6.70;;;;;;;13.23;93.27;99597.98;436928;1250;138872;-70
2023/06/14 20:03:16;;;;;;;8.30;7.40;;;;;;;13.16;93.72;99594.77;436170;1254;140144;-70
2023/06/14 20:13:19;;;;;;;10.70;9.60;;;;;;;13.08;94.27;99591.02;436125;1254;139486;-72
2023/06/14 20:23:23;;;;;;;7.30;6.70;;;;;;;13.02;94.55;99596.03;436123;1254;138851;-71
2023/06/14 20:33:26;;;;;;;13.70;11.10;;;;;;;12.94;94.82;99594.35;436506;1251;138804;-71
2023/06/14 20:43:29;;;;;;;9.30;8.50;;;;;;;12.81;94.90;99589.13;436598;1251;139109;-71
2023/06/14 20:53:32;;;;;;;11.30;9.70;;;;;;;12.64;95.31;99590.51;436383;1254;140294;-71
2023/06/14 21:03:35;;;;;;;13.50;11.90;;;;;;;12.54;95.98;99589.66;436423;1254;139861;-71
2023/06/14 21:13:39;;;;;;;13.70;12.40;;;;;;;12.53;96.40;99578.66;436368;1251;140072;-71
2023/06/14 21:23:42;;;;;;;10.50;9.40;;;;;;;12.50;96.62;99575.21;436940;1254;138972;-71
2023/06/14 21:33:45;;;;;;;14.00;9.50;;;;;;;12.44;97.04;99563.29;436505;1253;140292;-70
2023/06/14 21:43:48;;;;;;;12.50;11.30;;;;;;;12.38;97.26;99571.33;437133;1253;139100;-71
2023/06/14 21:53:51;;;;;;;10.60;9.60;;;;;;;12.35;97.47;99583.32;436675;1253;140019;-70
2023/06/14 22:03:54;;;;;;;11.00;10.00;;;;;;;12.33;97.69;99582.39;436405;1254;141105;-71
2023/06/14 22:13:59;;;;;;;16.20;14.70;;;;;;;12.32;98.05;99574.36;436481;1251;139306;-72
2023/06/14 22:24:03;;;;;;;12.20;11.00;;;;;;;12.32;98.24;99569.26;436407;1253;139745;-71
2023/06/14 22:34:07;;;;;;;13.70;11.00;;;;;;;12.28;98.17;99563.90;436888;1254;139544;-71
2023/06/14 22:44:11;;;;;;;12.20;11.00;;;;;;;12.32;98.34;99555.59;436423;1254;139863;-71
2023/06/14 22:54:14;;;;;;;10.40;9.30;;;;;;;12.35;98.49;99556.60;436602;1251;139138;-71
2023/06/14 23:04:20;;;;;;;10.90;9.70;;;;;;;12.40;98.50;99560.66;436484;1251;138837;-70
2023/06/14 23:14:24;;;;;;;10.90;9.50;;;;;;;12.44;98.61;99553.66;436737;1252;139012;-72
2023/06/14 23:24:28;;;;;;;9.80;8.90;;;;;;;12.48;98.41;99555.13;436321;1254;139560;-71
2023/06/14 23:34:33;;;;;;;9.80;8.50;;;;;;;12.53;97.81;99548.66;437123;1251;139481;-71
2023/06/14 23:44:36;;;;;;;9.60;8.80;;;;;;;12.54;97.90;99548.20;436412;1251;138954;-71
2023/06/14 23:54:41;;;;;;;10.70;8.80;;;;;;;12.53;97.76;99540.92;436446;1251;139716;-72
